CheckWX is a tool to help pilots better visualize weather data.  It is not intended as a substitute for an official pre-flight weather briefing.

17:16:42 UTC

LDZD TAF
Zadar Airport
Zemunik (Zadar), Croatia
TAF LDZD 151725Z 1518/1618 VRB02KT CAVOK TX28/1612Z TN15/1603Z BECMG 1609/1611 22008KT PROB40 TEMPO 1612/1616 30010KT

Jul-15@
18:00 UTC

Jul-15 @ 18:00 UTC

Jul-16@
09:00 UTC

Jul-16 @ 09:00 UTC

TAF LDZD 151725Z 1518/1618 VRB02KT CAVOK TX28/1612Z TN15/1603Z

Expired

Wind
  • Variable at 2 KTS
Cloud Levels
  • No significant clouds

Jul-16@
09:00 UTC

Jul-16 @ 09:00 UTC

Jul-16@
18:00 UTC

Jul-16 @ 18:00 UTC

BECMG 1609/1611 22008KT

Becoming

Becoming Conditions expected by Thu, Jul 16, 2020 @ 11:00 UTC

Wind
  • 220° at 8 KTS
Cloud Levels
  • No significant clouds

Jul-16@
12:00 UTC

Jul-16 @ 12:00 UTC

Jul-16@
16:00 UTC

Jul-16 @ 16:00 UTC

PROB40 TEMPO 1612/1616 30010KT

Expired

Wind
  • 300° at 10 KTS
Cloud Levels